Rodman, New York
Current Conditions -  °F | °C
As of 8:30 AM on Sunday 21 Dec 2014 (Local Time) from KART Reporting Station
Overcast Overcast  
Wind Chill: 22°   Ceiling: 3000
Heat Index: 27°   Visibility: 8mi
Dew Point: 20°   Wind: 5mph
Humidity: 75%   Direction: 30°NNE
Pressure: 30.32"   Gusts: NA
Location:  43.85°N, 75.94°W
Report Text: KART 211330Z AUTO 03004KT 8SM OVC030 M03/M07 A3032 RMK AO2 T10281067
Loading
Personal Weather Stations






























Interactive Weather Map New forecast layout! Learn more

10-Day Weather Forecast

Advertisements
Track Severe Weather on mobile